Date,TemperatureHighF,TemperatureAvgF,TemperatureLowF,DewpointHighF,DewpointAvgF,DewpointLowF,HumidityHigh,HumidityAvg,HumidityLow,PressureMaxIn,PressureMinIn,WindSpeedMaxMPH,WindSpeedAvgMPH,GustSpeedMaxMPH,PrecipitationSumIn
2013-1-3,30.1,29.9,29.8,18.5,18.3,18.1,62,61,61,22.71,21.04,6,2,7,0.00
2013-1-4,37.0,33.5,28.9,24.6,23.2,18.5,72,65,59,30.85,22.70,9,5,22,0.00
2013-1-7,45.7,32.8,30.7,28.6,24.3,23.7,76,71,50,20.77,16.45,10,1,12,0.00
2013-1-8,48.8,44.4,37.2,35.6,33.6,30.8,78,66,56,25.59,20.05,12,4,12,0.00
2013-1-10,41.8,40.2,38.0,28.6,27.7,27.2,68,61,57,25.59,18.63,1,0,2,0.00
2013-1-11,36.9,36.7,36.6,26.8,26.6,26.3,67,67,66,24.42,20.08,3,0,3,0.00
2013-1-18,36.9,30.3,26.8,27.3,15.8,10.2,68,55,40,0.00,40.00,7,3,19,0.00
2013-1-19,50.8,38.6,26.5,32.3,25.5,13.9,75,60,46,0.00,40.00,9,4,27,0.00
2013-1-20,53.6,43.0,33.3,34.2,26.7,16.3,79,54,33,0.00,40.00,10,4,29,0.00
2013-1-21,31.5,28.8,24.1,19.2,14.5,11.6,66,55,49,27.91,27.91,3,1,13,0.00
2013-1-22,27.6,20.4,15.0,13.6,4.2,-1.2,58,49,39,31.80,27.55,7,4,27,0.00
2013-1-23,20.1,14.9,10.7,3.4,0.3,-2.8,64,52,44,31.80,28.08,5,2,21,0.00
2013-1-24,24.1,17.6,11.5,5.9,3.4,0.9,76,55,37,31.80,20.08,9,3,27,0.00
2013-1-26,28.4,23.1,18.0,15.8,12.8,8.8,75,65,50,24.35,21.31,11,3,11,0.00
2013-1-27,27.6,25.6,23.5,15.6,15.0,13.8,66,64,59,22.65,18.06,11,3,13,0.00
2013-2-13,43.1,35.6,27.2,32.5,27.5,23.2,90,73,58,0.00,40.00,1,0,7,0.04
2013-2-14,45.7,38.3,31.9,32.9,30.7,28.9,94,76,53,0.00,40.00,4,1,12,0.02
2013-2-15,55.5,42.5,31.2,36.9,32.8,28.6,91,71,49,0.00,40.00,6,2,20,0.00
2013-2-16,43.0,36.9,32.1,36.0,28.8,19.0,91,73,57,0.00,40.00,5,3,18,0.05
2013-2-17,31.7,27.6,19.0,16.7,10.0,3.9,56,47,38,30.42,30.42,9,6,27,0.00
2013-2-18,35.9,25.6,16.9,14.8,9.2,3.7,58,50,38,31.80,28.75,6,3,22,0.00
2013-2-19,47.4,39.2,25.5,43.4,33.0,16.0,93,79,55,22.29,17.19,10,3,23,0.21
2013-2-20,33.2,29.5,28.7,22.4,15.6,13.3,64,56,47,22.29,20.04,18,5,30,0.30
2013-2-23,42.7,41.2,39.2,41.6,40.0,37.9,100,96,95,24.35,22.29,8,2,26,0.36
2013-2-24,49.2,49.2,49.2,35.9,35.9,35.9,60,60,60,23.82,23.82,7,5,8,0.01
2013-2-25,42.5,42.1,41.7,30.1,29.8,29.5,63,61,60,24.17,24.17,6,2,7,0.00
2013-2-27,44.8,44.8,44.7,38.7,38.6,38.4,79,79,78,24.17,22.28,9,3,11,1.25
2013-2-28,42.4,41.5,41.1,31.7,31.0,30.3,69,66,63,24.35,22.25,10,2,12,1.25
2013-3-1,41.2,40.4,39.8,31.7,30.1,29.5,69,66,65,24.17,21.55,14,4,14,0.00
2013-3-2,41.5,40.1,37.6,28.6,27.1,25.4,63,59,57,24.35,20.06,11,3,13,0.00
2013-3-5,44.1,43.0,42.5,29.6,29.2,28.9,59,58,56,24.35,22.24,3,0,11,0.00
2013-3-6,41.6,39.3,37.7,31.8,30.8,29.1,78,71,65,25.14,22.25,26,8,26,0.01
2013-3-7,39.7,37.5,33.1,35.3,30.4,28.0,93,76,67,24.17,24.17,23,6,24,0.10
2013-3-8,33.1,32.1,31.1,31.3,30.5,29.6,94,94,93,24.17,24.17,6,1,8,0.02
2013-3-9,58.9,53.6,42.3,31.0,26.8,23.6,60,36,27,24.35,20.11,12,3,15,0.01
2013-3-10,44.9,41.1,37.6,36.7,35.0,33.8,87,79,71,24.19,21.54,11,2,11,0.00
2013-3-13,40.7,40.1,39.8,31.4,31.1,30.6,71,70,67,24.17,24.17,9,4,10,0.72
2013-3-14,41.5,39.6,38.5,15.7,13.6,11.9,35,34,33,24.17,20.27,14,5,15,0.00
2013-3-15,47.3,47.2,47.2,30.5,30.0,29.5,52,51,50,24.17,20.06,10,3,14,0.00
2013-3-16,39.4,36.0,33.6,31.5,28.0,22.6,89,74,51,24.41,20.81,8,1,10,0.05
2013-3-19,47.4,45.8,44.3,36.7,36.2,35.2,72,69,66,24.17,20.07,7,0,8,0.93
2013-3-20,44.7,44.2,43.3,22.9,22.2,21.2,44,41,40,24.17,20.07,11,3,14,0.00
2013-3-22,39.2,37.3,35.3,24.8,24.1,23.1,64,59,52,0.00,40.00,6,5,18,0.00
2013-3-23,47.1,38.8,31.6,24.7,23.0,21.2,68,54,39,0.00,40.00,6,4,22,0.00
2013-3-24,48.5,39.8,30.4,29.9,24.2,19.7,65,54,43,0.00,40.00,5,2,20,0.00
2013-3-25,39.5,37.8,35.0,35.3,31.5,27.4,92,79,63,0.00,40.00,5,2,18,0.15
2013-3-26,51.5,42.8,33.9,34.7,31.7,28.7,90,67,43,0.00,40.00,4,1,13,0.00
2013-3-27,53.7,43.6,34.2,34.6,29.8,25.7,72,59,37,0.00,40.00,5,2,20,0.00
2013-3-28,50.0,45.5,36.0,37.1,32.0,29.7,79,60,48,24.19,20.81,11,3,19,0.00
2013-3-29,50.9,49.7,48.3,31.8,30.9,30.4,51,48,47,24.17,24.17,11,3,12,0.00
2013-3-30,54.9,54.9,54.9,31.0,31.0,31.0,40,40,40,0.00,40.00,4,4,9,0.00
2013-4-1,50.4,47.7,46.4,40.9,40.0,38.8,79,74,68,26.07,24.47,9,2,18,0.01
2013-4-2,48.8,39.9,30.2,38.7,17.4,15.9,68,40,33,26.07,22.24,15,3,29,0.00
2013-4-3,39.7,36.2,31.0,18.8,17.4,14.6,53,46,43,24.17,22.27,12,3,14,0.00
2013-4-6,52.7,46.1,41.0,22.3,18.0,16.1,46,33,25,24.34,22.28,12,3,15,0.00
2013-4-7,63.8,57.6,46.8,45.9,40.6,29.8,74,54,37,29.64,20.72,12,4,15,0.00
2013-4-8,65.8,52.0,46.5,48.6,44.8,42.0,86,77,54,31.42,20.51,8,1,10,0.00
2013-4-9,83.4,68.0,52.0,53.6,48.5,44.7,87,55,27,31.42,31.42,7,2,26,0.00
2013-4-10,75.5,64.8,56.0,56.0,52.3,47.7,93,65,49,0.00,40.00,3,1,26,0.11
2013-4-11,59.9,49.1,46.9,58.8,44.6,42.1,97,85,70,24.02,24.02,15,4,16,0.10
2013-4-12,48.7,43.8,41.6,42.8,41.4,40.1,95,91,74,24.30,20.18,22,4,24,0.55
2013-4-13,58.7,49.7,38.8,44.2,40.1,37.2,96,72,48,31.42,20.40,16,2,16,0.01
2013-4-14,61.3,52.8,43.6,43.4,37.1,31.8,91,58,36,31.42,22.92,18,2,21,0.00
2013-4-15,53.4,48.7,45.3,43.2,35.6,29.2,87,61,48,31.42,20.29,12,2,14,0.00
2013-4-16,70.5,58.6,46.4,58.2,51.2,42.8,89,77,64,31.42,20.61,13,2,13,0.00
2013-4-17,75.3,63.2,54.1,57.1,46.7,35.5,90,59,25,24.02,24.02,11,2,12,0.00
2013-4-18,54.5,51.9,48.6,52.6,46.6,42.5,94,82,70,27.47,24.02,13,2,13,0.02
2013-4-19,78.1,67.4,53.8,66.4,61.9,52.1,100,83,65,31.42,21.37,21,3,25,0.14
2013-4-20,61.8,52.8,47.5,59.5,37.7,27.6,95,59,38,31.42,21.28,24,4,24,0.09
2013-4-21,55.7,46.4,36.6,32.2,27.5,22.2,63,48,34,25.01,21.28,12,2,13,0.00
2013-4-22,51.6,45.0,38.2,38.5,33.9,30.0,82,66,51,26.49,24.14,22,3,22,0.00
2013-4-23,52.5,46.2,41.2,43.7,38.7,33.2,88,75,64,30.17,24.13,11,2,12,0.00
2013-4-24,46.3,43.6,41.7,40.2,38.8,37.5,85,83,79,31.49,26.24,0,0,2,0.00
2013-4-25,66.6,57.5,46.8,53.8,37.1,31.7,83,49,28,0.00,40.00,5,2,26,0.00
2013-4-26,70.5,59.4,42.3,39.2,34.2,30.4,78,40,25,24.17,24.15,6,0,11,0.00
2013-4-27,71.7,58.6,44.7,40.1,35.5,32.1,67,43,28,31.58,24.15,9,0,9,0.00
2013-4-28,70.8,58.7,43.5,48.1,40.1,32.7,77,52,34,31.58,31.58,10,1,11,0.00
2013-4-29,56.7,53.3,51.6,51.0,49.0,43.0,92,85,60,31.58,31.58,9,1,11,0.15
2013-4-30,63.4,56.8,51.1,49.4,44.6,30.5,92,67,32,31.58,31.58,14,2,14,0.00
2013-5-2,68.9,57.3,41.7,48.2,45.2,39.7,94,66,45,0.00,40.00,1,0,7,0.00
2013-5-3,61.1,55.8,50.1,47.1,43.8,38.3,82,65,48,31.42,31.42,3,1,14,0.00
2013-5-4,64.8,54.2,46.0,50.2,45.0,43.0,90,72,52,31.55,28.09,3,1,16,0.00
2013-5-5,58.2,51.2,45.2,45.6,42.9,39.1,87,74,58,28.63,28.32,3,1,14,0.00
2013-5-6,63.1,54.3,46.9,53.6,48.0,43.8,89,80,67,0.00,40.00,2,0,11,0.00
2013-5-7,67.9,57.8,47.0,60.0,53.1,45.1,96,85,69,31.69,31.69,2,1,12,0.01
2013-5-8,65.2,56.9,54.6,61.8,54.5,52.6,98,92,86,24.02,24.02,2,0,13,1.52
2013-5-9,70.0,60.8,53.8,62.1,56.6,51.9,99,87,66,24.02,24.02,12,0,12,0.61
2013-5-10,80.3,67.8,53.3,63.3,58.8,51.9,97,75,49,24.02,24.02,10,0,10,0.00
2013-5-11,72.9,64.9,62.2,66.9,62.8,58.5,97,93,71,24.02,24.02,11,0,14,0.69
2013-5-12,66.8,60.6,51.1,62.2,45.8,31.6,97,61,33,24.02,24.02,24,2,25,0.01
2013-5-13,59.0,50.5,43.0,35.4,32.7,29.1,70,51,37,24.02,24.02,18,2,20,0.00
2013-5-14,63.9,51.7,38.4,36.9,33.0,27.2,81,52,26,24.02,24.02,13,0,14,0.00
2013-5-15,75.3,59.0,44.8,60.5,48.6,34.1,78,69,53,29.95,24.02,9,0,11,0.00
2013-5-16,82.5,69.4,57.9,63.9,59.0,53.8,92,71,46,29.95,24.02,10,0,13,0.00
2013-5-17,78.4,66.5,58.9,56.7,46.5,42.9,77,49,32,24.02,24.02,10,0,10,0.00
2013-5-18,61.8,59.3,55.0,56.4,52.5,47.9,89,78,61,24.02,24.02,7,0,8,0.00
2013-5-19,58.4,56.6,55.2,56.5,55.4,53.6,98,96,85,24.02,24.02,12,1,13,0.58
2013-5-20,57.7,57.6,57.6,57.3,57.3,57.3,99,99,99,24.18,24.17,0,0,6,0.00
2013-5-21,85.7,74.6,64.1,73.9,68.3,62.6,97,82,64,30.38,30.38,2,0,13,0.00
2013-5-22,79.0,73.3,61.3,71.6,69.2,59.3,93,87,78,24.03,19.37,4,0,8,0.00
2013-5-23,80.8,73.1,68.1,71.6,69.0,66.3,95,87,68,20.96,19.37,15,1,15,0.63
2013-5-24,68.1,55.8,46.0,66.6,53.4,42.0,98,92,79,27.31,19.65,9,1,14,0.45
2013-5-25,57.9,50.6,45.0,47.6,43.2,39.0,93,77,56,24.14,24.14,18,2,19,0.07
2013-5-26,69.3,56.7,47.2,43.5,41.0,39.2,76,58,35,24.14,24.14,14,2,21,0.00
2013-5-27,74.4,60.5,43.5,47.9,42.8,38.4,84,55,35,0.00,40.00,2,1,14,0.00
2013-5-28,65.7,59.0,52.6,58.2,53.1,45.8,97,82,57,0.00,40.00,1,0,9,0.42
2013-5-29,87.5,81.2,59.0,70.3,66.9,58.2,98,64,54,28.66,24.02,9,1,13,0.00
2013-5-30,92.7,82.0,70.5,72.0,68.6,66.7,89,66,45,29.85,29.85,6,0,13,0.00
2013-5-31,92.1,82.8,70.6,72.5,67.8,64.7,86,63,41,0.00,40.00,1,0,11,0.00
2013-6-1,88.3,84.8,70.0,72.4,70.1,66.2,89,62,53,32.35,24.02,8,0,12,0.00
2013-6-2,88.0,82.1,72.5,73.4,70.7,67.8,87,69,53,24.02,23.00,16,2,16,0.00
2013-6-6,68.5,66.1,64.8,60.5,12.2,0.0,83,15,64,0.00,40.00,3,1,14,32.16
2013-6-7,64.8,64.8,64.8,0.0,0.0,0.0,0,0,100,0.00,40.00,0,0,0,32.16
2013-6-8,77.0,70.1,64.8,65.9,21.8,0.0,83,26,72,0.00,40.00,2,0,12,32.16
2013-6-9,83.7,79.0,77.0,65.3,21.0,0.0,59,19,53,0.00,40.00,2,0,13,32.16
2013-6-10,82.4,82.4,82.4,0.0,0.0,0.0,0,0,100,0.00,40.00,0,0,0,32.16
2013-6-11,82.4,80.5,75.5,68.8,22.7,0.0,79,24,67,30.20,30.20,4,1,20,32.16
2013-6-12,82.7,74.8,68.0,60.4,42.6,0.0,69,44,47,25.40,23.83,2,0,10,28.14
2013-6-13,62.6,62.5,62.4,58.0,57.9,57.8,85,85,85,24.02,24.02,0,0,0,0.00
2013-7-6,92.8,85.0,75.9,76.4,75.1,73.1,91,73,58,0.00,40.00,2,1,12,0.00
2013-7-7,92.1,85.0,77.4,78.3,75.5,73.2,88,74,61,0.00,40.00,2,0,23,0.00
2013-7-8,87.5,79.7,71.3,75.2,70.9,68.2,91,75,62,0.00,40.00,2,1,12,0.00
2013-7-9,87.4,79.0,70.8,74.2,71.2,68.4,92,78,63,0.00,40.00,2,0,14,0.01
2013-7-10,86.8,80.5,73.8,78.1,74.2,71.5,93,82,68,0.00,40.00,3,1,16,0.00
2013-7-11,86.4,81.0,77.4,75.2,72.2,67.4,88,75,61,0.00,40.00,0,0,9,0.00
2013-7-12,78.1,76.0,72.7,69.6,68.1,64.5,81,77,70,30.20,24.02,7,0,10,0.00
2013-7-13,76.5,75.0,69.6,75.2,73.6,68.7,97,96,80,27.81,24.02,7,0,8,0.03
2013-7-14,81.8,77.4,74.2,76.6,75.1,73.7,99,93,83,24.02,24.02,5,0,10,4.70
2013-7-15,97.1,86.5,76.3,79.8,63.1,0.0,90,56,51,0.00,40.00,1,0,8,0.00
2013-7-16,97.0,87.4,76.2,74.9,72.1,69.8,83,62,44,0.00,40.00,1,0,9,0.00
2013-7-17,97.2,87.2,75.6,75.8,73.8,71.2,90,66,49,0.00,40.00,1,0,9,0.00
2013-7-18,99.0,89.1,78.6,79.0,75.8,73.0,84,66,50,0.00,40.00,1,0,10,0.00
2013-7-19,93.8,91.6,80.7,81.5,80.3,76.8,89,70,63,24.02,24.02,11,1,13,0.00
2013-7-22,84.2,78.0,74.5,76.5,73.9,70.4,98,88,73,0.00,40.00,2,1,11,0.23
2013-7-23,85.5,78.7,71.9,75.6,74.0,71.6,99,86,71,0.00,40.00,2,1,12,0.31
2013-7-24,82.8,77.3,70.3,72.2,67.6,58.8,91,73,57,0.00,40.00,1,0,8,0.00
2013-7-25,68.7,66.7,64.4,60.5,56.9,52.3,78,71,64,0.00,40.00,1,0,13,0.00
2013-7-26,82.3,73.4,66.7,67.4,62.7,60.0,81,70,54,0.00,40.00,1,0,9,0.00
2013-7-27,82.5,74.4,66.3,69.3,66.2,63.6,91,77,57,31.16,27.81,1,0,14,0.00
2013-7-28,80.4,75.5,69.1,71.8,70.4,66.5,97,85,74,31.91,24.02,8,0,12,0.38
2013-8-2,82.7,79.2,70.9,71.3,66.3,63.0,96,65,52,29.55,24.02,16,1,16,0.01
2013-8-3,73.2,70.1,68.7,66.5,63.9,61.7,84,81,78,29.55,29.55,5,0,6,0.00
2013-8-4,79.6,72.8,64.8,66.4,61.1,55.6,93,68,51,0.00,40.00,1,0,11,0.00
2013-8-5,79.4,70.6,60.6,58.7,54.6,51.3,78,59,38,0.00,40.00,1,0,9,0.00
2013-8-6,80.6,72.0,62.1,64.9,59.9,57.6,87,67,48,0.00,40.00,1,0,13,0.00
2013-8-7,78.2,75.3,69.6,69.2,68.0,64.2,85,78,72,24.04,24.02,8,0,9,0.02
2013-8-8,81.2,73.9,70.2,77.4,71.7,68.4,98,93,81,31.33,31.33,2,0,12,1.29
2013-8-9,84.3,81.1,72.1,77.8,75.5,71.5,98,84,78,31.64,20.18,10,1,14,0.01
2013-8-10,79.9,79.1,78.4,68.4,67.4,66.6,69,67,66,24.09,23.00,5,0,8,0.02
2013-8-11,81.4,73.4,62.8,67.6,61.7,57.0,85,68,52,30.88,29.51,1,0,11,0.48
2013-8-12,80.0,73.9,68.8,71.3,68.9,66.8,97,85,72,0.00,40.00,0,0,7,0.46
2013-8-13,77.5,72.4,68.6,71.8,69.3,67.3,98,90,79,0.00,40.00,0,0,9,0.79
2013-8-14,74.9,73.3,61.0,66.4,57.1,51.9,85,57,53,24.02,24.02,8,2,12,0.18
2013-8-15,78.9,71.1,64.3,57.8,56.3,54.2,77,61,44,31.42,24.02,7,0,10,0.00
2013-8-16,80.6,73.9,59.0,60.3,58.3,55.8,90,60,45,25.40,23.82,4,0,7,0.00
2013-8-18,74.5,68.3,66.9,62.2,61.6,58.3,83,79,57,25.35,23.05,0,0,1,0.00
2013-8-19,75.7,70.3,63.1,67.2,64.1,60.0,93,81,64,31.22,23.05,10,0,10,0.00
2013-8-20,87.9,74.6,64.2,73.3,67.3,62.7,95,80,54,31.58,24.02,7,0,10,0.00
2013-8-21,89.9,88.3,86.1,68.2,67.3,66.1,54,50,47,28.54,24.02,1,0,2,0.00
2013-8-22,76.6,72.9,71.0,73.8,71.6,69.8,98,96,89,30.20,16.94,4,0,5,0.70
2013-8-23,83.2,75.2,68.7,71.6,65.0,58.2,98,73,44,31.50,23.02,6,0,7,0.00
2013-8-24,78.5,71.8,64.0,61.9,57.2,52.4,80,61,46,0.00,40.00,1,0,10,0.00
2013-8-25,80.8,78.7,58.7,61.1,59.3,56.1,91,52,46,31.56,23.00,11,1,11,0.00
2013-8-26,82.2,73.0,65.3,71.0,63.9,58.5,83,74,64,0.00,40.00,2,1,20,0.00
2013-8-27,88.4,78.3,70.0,73.0,70.3,68.5,95,78,58,0.00,40.00,1,0,7,0.08
2013-8-28,82.7,75.3,69.8,75.5,71.9,68.3,96,90,73,0.00,40.00,1,0,12,0.07
2013-8-29,78.4,73.0,70.3,71.5,69.3,66.7,97,89,75,0.00,40.00,1,0,9,0.01
2013-8-30,83.1,74.8,68.9,73.6,69.4,66.3,93,84,69,27.87,27.87,2,0,11,0.00
2013-8-31,85.0,77.7,71.1,76.1,72.8,69.3,94,85,73,0.00,40.00,1,0,12,0.00
2013-9-1,83.6,77.1,73.2,77.0,72.1,70.8,95,85,77,29.55,23.83,6,0,9,0.00
2013-9-3,81.3,75.9,68.5,73.0,66.1,60.8,97,73,53,31.50,19.37,11,0,12,0.34
2013-9-4,78.7,69.0,61.2,63.6,60.1,57.5,92,75,54,31.50,24.02,10,0,11,0.00
2013-9-11,91.9,82.8,74.0,79.7,75.6,72.5,95,80,63,29.39,28.73,1,0,11,0.00
2013-9-12,83.6,77.4,69.5,77.2,73.0,68.3,96,87,78,0.00,40.00,1,0,11,0.73
2013-9-13,74.5,68.6,61.4,68.1,62.3,52.7,98,82,59,0.00,40.00,1,0,11,0.08
2013-9-14,66.6,59.5,53.0,52.0,49.8,46.2,84,71,58,0.00,40.00,1,0,11,0.00
2013-9-15,71.1,58.5,46.6,54.4,49.2,44.3,92,73,48,0.00,40.00,1,0,10,0.00
2013-9-16,70.8,62.7,56.9,58.6,56.0,53.8,94,80,59,0.00,40.00,0,0,7,0.05
2013-9-17,63.5,57.1,47.5,51.8,43.2,39.5,85,61,47,24.02,24.02,11,0,13,0.00
2013-9-18,49.2,45.5,43.1,45.3,42.7,40.8,92,90,85,24.02,24.02,0,0,0,0.00
2013-9-19,74.3,61.2,49.4,57.5,54.5,47.2,92,79,51,24.02,24.01,1,0,10,0.00
2013-9-20,76.0,68.1,54.9,63.5,59.2,52.1,91,74,61,26.43,24.02,10,0,10,0.00
2013-9-21,77.6,72.3,62.1,67.9,65.3,60.3,95,79,58,24.57,24.01,10,0,13,0.18
2013-9-22,68.4,65.1,62.8,66.9,62.3,53.4,96,91,62,24.57,24.02,6,0,8,0.57
2013-9-23,64.7,55.8,48.8,48.2,45.5,42.5,81,69,54,30.69,24.02,4,0,9,0.38
2013-9-24,73.9,57.2,44.0,52.8,46.8,40.8,90,70,47,24.02,24.02,7,0,8,0.00
2013-9-25,74.0,59.7,47.7,55.2,48.9,43.9,90,69,50,24.02,24.02,7,0,7,0.00
2013-9-26,68.7,63.3,52.9,60.3,58.0,50.6,93,83,72,30.16,24.02,4,0,9,0.00
2013-9-27,65.0,63.0,61.5,57.5,55.6,53.5,80,77,73,24.20,24.02,4,0,4,0.00
2013-9-30,72.2,61.7,50.8,57.8,54.1,48.8,95,78,55,28.69,24.02,6,0,6,0.00
2013-10-1,75.9,67.6,62.5,64.0,59.7,56.6,82,76,67,25.86,24.02,1,0,2,0.00
2013-10-2,80.7,71.0,61.5,66.2,61.9,56.9,87,74,60,27.84,20.69,12,1,15,0.00
2013-10-3,80.7,69.0,65.2,65.5,60.1,58.5,79,73,60,27.84,23.25,4,0,10,0.00
2013-10-4,84.4,77.6,64.5,69.5,67.7,58.2,84,72,60,30.69,24.02,7,0,7,0.00
2013-10-5,75.1,70.2,65.8,68.2,65.5,63.7,93,85,77,24.19,20.49,6,0,7,0.00
2013-10-6,68.9,67.3,65.0,67.4,66.4,63.9,98,97,94,31.31,22.89,11,2,11,0.00
2013-10-7,77.0,66.9,58.5,71.4,65.5,56.8,98,95,82,31.31,30.86,4,0,21,0.40
2013-10-8,66.5,57.9,48.8,56.1,49.5,46.9,96,75,52,0.00,40.00,1,0,10,0.00
2013-10-9,61.6,56.9,51.4,51.6,48.1,43.0,77,72,67,0.00,40.00,2,0,12,0.00
2013-10-10,62.0,60.9,52.8,56.3,55.4,48.7,90,82,77,31.42,24.17,10,1,13,0.03
2013-10-11,58.5,58.3,58.0,55.3,55.1,55.0,90,89,89,31.42,31.42,6,2,11,0.01
2013-10-12,70.3,65.0,59.6,59.2,52.0,43.8,77,63,46,31.73,29.53,3,1,18,0.24
2013-10-13,64.3,60.5,56.2,55.8,54.1,51.1,84,79,71,31.42,24.02,12,1,15,0.15
2013-10-14,64.8,61.6,58.1,53.5,51.9,50.3,83,71,63,31.42,24.02,7,0,8,0.00
2013-10-15,62.3,57.4,54.8,53.2,52.3,50.4,90,83,65,24.29,24.02,4,0,6,0.00
2013-10-16,62.8,61.2,60.5,59.5,59.0,58.7,94,92,88,31.42,24.02,5,0,6,0.00
2013-10-17,71.1,64.6,60.4,64.6,61.6,58.7,96,90,77,0.00,40.00,0,0,10,0.02
2013-10-18,66.0,56.0,51.0,63.0,45.7,43.9,95,69,53,24.02,24.02,7,0,19,0.01
2013-10-19,62.7,57.3,46.1,51.6,48.5,43.8,93,73,62,24.22,24.02,5,0,5,0.00
2013-10-20,62.0,54.5,47.1,55.0,43.8,39.9,91,69,44,29.24,27.18,2,1,14,0.00
2013-10-21,65.0,53.5,44.7,47.6,27.6,0.0,80,37,45,0.00,40.00,2,0,14,0.00
2013-10-22,63.6,52.9,43.1,52.1,46.5,41.2,95,80,65,31.42,27.86,2,0,15,0.00
2013-10-23,54.4,49.8,46.2,41.3,21.7,0.0,77,36,59,30.15,27.06,2,0,11,0.00
2013-10-24,52.2,47.3,42.0,36.0,18.6,0.0,72,32,45,30.15,30.15,4,1,20,0.00
2013-10-25,51.4,47.2,36.2,37.6,35.4,30.0,81,64,54,24.15,24.15,11,2,14,0.00
2013-10-28,51.1,51.1,51.1,35.0,35.0,35.0,54,54,54,24.17,24.02,0,0,9,0.00
2013-11-10,59.0,47.8,39.2,43.0,35.4,31.7,83,63,46,0.00,40.00,9,3,35,0.00
2013-11-11,52.6,47.2,38.0,36.1,32.0,27.4,69,56,48,30.23,28.86,4,2,18,0.00
2013-11-12,50.7,39.1,31.0,38.5,27.3,19.4,84,63,52,28.86,27.07,5,2,21,0.01
2013-11-13,39.6,32.1,27.6,20.1,18.3,15.2,68,57,40,0.00,40.00,5,1,21,0.00
2013-11-14,52.0,40.3,30.5,24.0,21.8,20.8,68,50,32,27.37,27.37,5,2,19,0.00
2013-11-15,56.5,43.2,31.2,33.5,28.8,24.5,78,58,39,31.67,27.34,1,0,8,0.00
2013-11-16,59.0,52.0,38.8,48.0,45.1,30.2,93,78,61,27.06,24.02,6,0,7,0.04
2013-11-17,58.8,57.5,55.4,56.5,54.9,52.2,93,91,89,31.60,24.02,4,0,4,0.00
2013-11-18,64.3,63.3,57.7,61.9,41.8,36.8,98,46,38,28.66,24.02,22,6,23,0.12
2013-11-21,62.6,48.7,48.5,42.4,41.9,36.7,79,77,38,28.66,24.02,4,0,18,0.12
2013-11-23,43.4,41.7,40.2,27.8,26.6,25.9,61,55,50,30.88,24.02,10,3,13,0.11
2013-11-24,31.0,25.8,22.5,14.1,7.7,6.3,51,46,38,0.00,40.00,7,4,26,2.64
2013-11-25,34.7,27.5,20.3,17.0,13.1,8.6,62,54,48,0.00,40.00,4,2,15,2.64
2013-11-26,43.0,35.7,31.7,41.9,27.1,17.8,96,72,56,31.69,30.25,1,0,7,0.09
2013-11-27,61.8,47.1,34.7,61.2,44.6,24.5,99,91,66,0.00,40.00,6,3,21,0.38
2013-11-28,35.5,31.6,28.5,23.8,18.1,15.4,66,57,44,0.00,40.00,5,2,22,0.39
2013-11-29,38.6,32.4,28.8,24.3,21.6,18.7,75,64,54,0.00,40.00,3,1,13,0.03
2013-11-30,37.4,35.3,24.8,31.0,26.8,14.9,78,71,58,24.02,24.02,7,1,11,0.11
2013-12-1,48.1,40.2,31.6,35.3,31.4,27.0,85,71,59,24.02,23.86,8,0,9,0.38
2013-12-2,51.4,42.9,37.7,37.5,33.2,29.9,75,68,55,24.02,24.02,5,0,6,0.01
2013-12-3,53.4,42.8,36.5,39.2,36.1,33.1,91,78,58,0.00,40.00,2,0,9,0.00
2013-12-4,49.0,42.9,35.2,44.5,38.7,32.3,91,85,78,30.33,30.33,0,0,5,0.00
2013-12-5,57.8,52.6,48.1,55.9,51.0,46.2,97,94,88,0.00,40.00,2,0,9,0.03
2013-12-6,61.5,48.9,38.6,60.9,47.5,37.0,99,95,92,0.00,40.00,4,2,24,0.16
2013-12-7,40.2,36.5,31.7,37.1,30.4,21.3,95,79,63,0.00,40.00,5,1,18,0.17
2013-12-8,33.0,30.0,27.6,28.8,22.0,17.9,93,73,62,31.67,31.67,3,1,13,0.00
2013-12-9,37.0,36.0,30.8,35.9,34.8,29.2,96,95,93,32.37,31.67,9,2,12,0.11
2013-12-10,33.5,30.4,26.6,32.2,27.3,19.4,96,88,73,31.20,22.89,14,3,14,0.12
2013-12-11,31.8,27.6,22.9,20.6,18.5,16.2,76,68,55,24.02,23.38,20,3,20,0.00
2013-12-12,27.8,27.3,26.7,18.6,18.4,18.1,70,69,68,24.02,24.02,5,0,7,0.00
2013-12-13,34.4,26.5,18.2,20.7,15.1,9.1,70,62,54,0.00,40.00,7,2,21,0.00
2013-12-14,31.0,23.9,21.1,29.7,22.1,19.2,96,93,71,24.02,24.02,13,3,15,0.00
2013-12-15,37.7,34.6,30.5,34.2,30.1,22.9,100,84,68,29.85,23.70,22,4,22,0.70
2013-12-16,31.4,24.2,19.7,24.1,13.6,12.5,78,64,51,24.02,23.86,12,1,20,0.00
2013-12-17,30.6,25.5,21.2,28.6,21.5,14.8,92,85,71,24.12,24.02,8,1,10,0.00
2013-12-18,36.8,28.8,20.8,27.1,22.3,17.8,89,77,61,24.02,24.02,16,1,19,0.00
2013-12-19,43.7,32.9,23.1,32.8,26.0,19.5,87,76,60,0.00,40.00,5,1,13,0.20
2013-12-20,50.5,44.0,31.5,37.8,36.3,29.2,91,74,59,24.02,23.05,4,0,13,0.30
2013-12-21,63.2,57.4,39.2,55.1,51.7,37.1,97,82,72,24.02,24.02,9,0,10,0.03
2013-12-22,63.7,61.4,58.2,61.1,58.2,54.9,92,89,88,24.02,24.02,12,3,14,0.00
2013-12-23,61.6,44.2,40.7,58.9,39.3,33.1,98,83,74,24.02,24.02,16,5,22,0.23
2013-12-24,40.7,35.4,32.7,33.4,25.6,23.1,75,67,58,24.02,24.02,15,3,19,0.02
2013-12-25,31.2,27.3,18.7,17.1,13.8,9.0,66,57,48,24.02,24.02,8,0,21,0.00
2013-12-26,35.5,29.6,26.1,27.7,22.3,16.6,82,74,64,24.02,24.02,7,0,18,0.01
2013-12-27,30.7,29.0,27.6,24.7,23.2,22.0,79,79,77,24.02,24.02,5,0,6,0.00
2013-12-28,55.7,48.9,25.2,34.2,32.0,21.6,86,52,42,24.02,23.70,19,3,20,0.16
2013-12-29,44.3,41.5,38.5,43.0,35.6,28.8,96,80,62,24.02,23.04,14,1,16,1.24
2013-12-30,43.6,35.6,23.5,38.3,28.9,12.8,93,77,61,0.00,40.00,10,3,16,0.00
2013-12-31,30.7,25.8,20.4,24.9,13.4,11.2,80,59,55,24.02,24.02,14,2,22,0.00
2014-1-1,24.9,24.8,24.7,12.2,12.1,12.0,58,58,58,24.02,24.02,6,2,19,0.00
2014-1-2,32.8,20.7,16.3,25.6,18.4,14.0,92,91,69,24.02,23.70,18,4,21,0.00